Time;durP1;ratioP1;P1;durP2;ratioP2;P2;SDS_P1;SDS_P2;PMS_P1;PMS_P2;Temp;Humidity;BMP_temperature;BMP_pressure;BME280_temperature;BME280_humidity;BME280_pressure;Samples;Min_cycle;Max_cycle;Signal;HPM_P1;HPM_P2
2022/03/11 00:01:50;;;;;;;7.35;4.30;;;4.20;95.50;;;;;;6169703;23;19966;-86
2022/03/11 00:04:16;;;;;;;8.63;4.82;;;4.20;93.80;;;;;;6192984;23;20377;-88
2022/03/11 00:07:00;;;;;;;8.45;4.95;;;4.30;93.70;;;;;;6185444;23;20107;-88
2022/03/11 00:09:26;;;;;;;7.75;5.10;;;4.20;94.00;;;;;;6134685;23;20091;-89
2022/03/11 00:11:51;;;;;;;7.53;4.65;;;4.20;93.70;;;;;;6183111;23;20029;-87
2022/03/11 00:14:18;;;;;;;8.95;5.20;;;4.30;94.80;;;;;;6182109;23;20089;-88
2022/03/11 00:16:43;;;;;;;7.05;4.00;;;4.00;94.10;;;;;;6195833;23;20029;-85
2022/03/11 00:19:10;;;;;;;8.68;4.57;;;4.30;95.40;;;;;;6146505;23;20020;-87
2022/03/11 00:21:35;;;;;;;;;;;3.90;94.60;;;;;;6185950;23;20389;-87
2022/03/11 00:24:01;;;;;;;6.50;4.40;;;4.20;97.40;;;;;;6159040;23;19912;-89
2022/03/11 00:26:27;;;;;;;8.07;4.70;;;3.80;95.30;;;;;;6183784;23;20013;-87
2022/03/11 00:28:53;;;;;;;8.88;5.43;;;3.80;95.40;;;;;;6183742;23;20071;-87
2022/03/11 00:31:19;;;;;;;7.95;4.70;;;3.70;95.50;;;;;;6158567;23;20055;-88
2022/03/11 00:33:45;;;;;;;9.38;4.85;;;4.40;96.00;;;;;;6184024;23;20028;-88
2022/03/11 00:36:10;;;;;;;8.13;4.55;;;3.70;97.30;;;;;;6162078;23;20345;-88
2022/03/11 00:38:36;;;;;;;17.48;5.57;;;3.60;97.60;;;;;;6160709;23;20028;-88
2022/03/11 00:41:02;;;;;;;8.52;4.28;;;4.30;97.40;;;;;;6160453;23;20017;-89
2022/03/11 00:43:28;;;;;;;9.57;4.82;;;3.90;97.40;;;;;;6184708;23;20025;-89
2022/03/11 00:45:54;;;;;;;;;;;3.50;97.40;;;;;;6184568;23;20021;-88
2022/03/11 00:48:20;;;;;;;8.68;4.05;;;3.60;99.90;;;;;;6141184;23;19923;-86
2022/03/11 00:50:49;;;;;;;8.75;4.85;;;4.10;99.30;;;;;;6190876;23;20032;-87
2022/03/11 00:53:15;;;;;;;6.72;4.70;;;4.30;99.50;;;;;;6158582;23;20025;-89
2022/03/11 00:55:40;;;;;;;7.57;4.78;;;3.50;99.90;;;;;;6134741;23;20017;-88
2022/03/11 00:58:06;;;;;;;7.90;4.60;;;3.60;99.90;;;;;;6183568;23;20023;-87
2022/03/11 01:00:33;;;;;;;8.57;5.60;;;3.60;99.90;;;;;;6183386;23;20118;-87
2022/03/11 01:02:59;;;;;;;8.27;5.10;;;3.60;99.90;;;;;;6182982;23;20013;-88
2022/03/11 01:05:25;;;;;;;10.32;4.55;;;3.60;99.90;;;;;;6183551;23;20044;-88
2022/03/11 01:07:51;;;;;;;7.00;4.45;;;3.50;99.90;;;;;;6182960;23;20013;-87
2022/03/11 01:10:17;;;;;;;9.30;4.65;;;3.80;99.90;;;;;;6135217;23;20064;-89
2022/03/11 01:12:43;;;;;;;9.57;5.22;;;3.80;99.90;;;;;;6160729;23;20353;-88
2022/03/11 01:15:09;;;;;;;9.93;5.20;;;3.50;99.90;;;;;;6182638;23;20059;-89
2022/03/11 01:17:36;;;;;;;8.75;4.65;;;4.30;99.90;;;;;;6158675;23;20017;-88
2022/03/11 01:20:03;;;;;;;10.38;5.15;;;3.40;99.90;;;;;;6182176;23;20012;-88
2022/03/11 01:22:30;;;;;;;8.18;5.00;;;3.40;99.90;;;;;;6157766;23;20075;-87
2022/03/11 01:24:56;;;;;;;9.73;5.45;;;3.30;99.90;;;;;;6182739;23;20024;-88
2022/03/11 01:27:22;;;;;;;14.65;5.55;;;3.30;99.90;;;;;;6158156;23;20012;-87
2022/03/11 01:29:47;;;;;;;9.77;5.43;;;3.40;99.90;;;;;;6158108;23;20059;-88
2022/03/11 01:32:13;;;;;;;12.45;6.07;;;3.80;99.90;;;;;;6157189;23;20021;-88
2022/03/11 01:34:39;;;;;;;9.75;5.32;;;3.20;99.90;;;;;;6182280;23;20149;-89
2022/03/11 01:37:05;;;;;;;11.02;6.15;;;3.10;99.90;;;;;;6157539;23;20446;-89
2022/03/11 01:39:30;;;;;;;10.25;5.22;;;3.80;99.90;;;;;;6158483;23;20028;-88
2022/03/11 01:41:56;;;;;;;11.15;5.55;;;3.30;99.90;;;;;;6182610;23;20449;-88
2022/03/11 01:44:25;;;;;;;13.70;6.15;;;3.00;99.90;;;;;;6182368;23;20017;-87
2022/03/11 01:46:51;;;;;;;13.48;6.43;;;3.00;99.90;;;;;;6182242;23;20013;-87
2022/03/11 01:49:17;;;;;;;10.45;5.90;;;3.00;99.90;;;;;;6181595;23;20095;-87
2022/03/11 01:51:43;;;;;;;16.45;5.03;;;3.00;99.90;;;;;;6182287;23;20021;-86
2022/03/11 01:54:10;;;;;;;11.45;6.80;;;3.50;99.90;;;;;;6160707;23;20028;-84
2022/03/11 01:56:37;;;;;;;12.32;5.45;;;3.10;99.90;;;;;;6193425;23;20064;-88
2022/03/11 01:59:03;;;;;;;7.95;5.65;;;2.90;99.90;;;;;;6182354;23;20483;-87
2022/03/11 02:01:30;;;;;;;10.50;6.07;;;2.90;99.90;;;;;;6182338;23;20018;-87
2022/03/11 02:03:58;;;;;;;11.27;6.78;;;2.90;99.90;;;;;;6157541;23;20021;-89
2022/03/11 02:06:26;;;;;;;9.65;5.35;;;3.40;99.90;;;;;;6186828;23;20021;-87
2022/03/11 02:08:52;;;;;;;12.00;6.95;;;2.90;99.90;;;;;;6185192;23;20075;-86
2022/03/11 02:11:19;;;;;;;11.75;6.00;;;3.20;99.90;;;;;;6183313;23;20075;-87
2022/03/11 02:13:53;;;;;;;8.93;5.90;;;2.80;99.90;;;;;;6158922;23;20028;-88
2022/03/11 02:16:22;;;;;;;13.65;6.72;;;3.40;99.90;;;;;;6182092;23;20017;-89
2022/03/11 02:18:48;;;;;;;9.52;5.97;;;2.70;99.90;;;;;;6182229;23;20539;-88
2022/03/11 02:21:14;;;;;;;;;;;3.10;99.90;;;;;;6182911;23;20034;-87
2022/03/11 02:23:47;;;;;;;11.90;6.63;;;2.70;99.90;;;;;;6182486;23;19918;-87
2022/03/11 02:26:18;;;;;;;11.80;7.63;;;2.70;99.90;;;;;;6182511;23;20017;-87
2022/03/11 02:28:45;;;;;;;12.50;7.40;;;2.60;99.90;;;;;;6183650;23;20380;-86
2022/03/11 02:31:11;;;;;;;11.52;7.40;;;2.70;99.90;;;;;;6189727;23;20045;-87
2022/03/11 02:33:37;;;;;;;;;;;2.50;99.90;;;;;;6183637;23;20028;-86
2022/03/11 02:36:03;;;;;;;14.30;7.65;;;2.50;99.90;;;;;;6183966;23;19916;-87
2022/03/11 02:38:29;;;;;;;11.20;6.95;;;2.50;99.90;;;;;;6184935;23;20448;-87
2022/03/11 02:40:55;;;;;;;15.95;7.35;;;2.50;99.90;;;;;;6111222;23;20028;-88
2022/03/11 02:43:21;;;;;;;11.40;7.80;;;3.80;99.90;;;;;;6159500;23;20096;-88
2022/03/11 02:45:47;;;;;;;16.40;10.40;;;3.50;99.90;;;;;;6161014;23;20100;-89
2022/03/11 02:48:13;;;;;;;15.23;7.70;;;2.40;99.90;;;;;;6185938;23;20021;-88
2022/03/11 02:50:38;;;;;;;13.63;8.02;;;2.50;99.90;;;;;;6189219;23;20021;-88
2022/03/11 02:53:04;;;;;;;19.05;9.05;;;2.40;99.90;;;;;;6178427;23;20009;-87
2022/03/11 02:55:30;;;;;;;18.33;7.97;;;2.70;99.90;;;;;;6166019;23;20021;-89
2022/03/11 02:57:55;;;;;;;14.80;8.75;;;2.30;99.90;;;;;;6162066;23;20021;-90
2022/03/11 03:00:22;;;;;;;15.52;8.30;;;2.60;99.90;;;;;;6148732;23;20069;-90
2022/03/11 03:02:48;;;;;;;24.02;9.02;;;3.60;99.90;;;;;;6163412;23;20013;-88
2022/03/11 03:05:13;;;;;;;15.07;7.97;;;2.90;99.90;;;;;;6183468;23;20013;-88
2022/03/11 03:07:40;;;;;;;17.15;8.50;;;2.40;99.90;;;;;;6110350;23;20403;-90
2022/03/11 03:10:07;;;;;;;13.68;8.05;;;2.20;99.90;;;;;;6134532;23;20017;-89
2022/03/11 03:12:33;;;;;;;14.00;8.30;;;2.20;99.90;;;;;;6184234;23;20013;-89
2022/03/11 03:14:58;;;;;;;16.45;9.15;;;2.20;99.90;;;;;;6159555;23;20460;-90
2022/03/11 03:17:24;;;;;;;13.85;8.75;;;3.20;99.90;;;;;;6159147;23;20017;-89
2022/03/11 03:19:50;;;;;;;12.38;8.90;;;2.10;99.90;;;;;;6159245;23;20013;-90
2022/03/11 03:22:16;;;;;;;23.80;9.25;;;2.10;99.90;;;;;;6173102;23;20452;-87
2022/03/11 03:24:42;;;;;;;19.92;8.93;;;2.10;99.90;;;;;;6204858;23;20017;-87
2022/03/11 03:27:09;;;;;;;17.80;10.30;;;3.20;99.90;;;;;;6165221;23;20576;-89
2022/03/11 03:29:35;;;;;;;12.38;7.97;;;2.10;99.90;;;;;;6163545;23;20045;-88
2022/03/11 03:32:01;;;;;;;17.45;8.45;;;2.60;99.90;;;;;;6185149;23;20021;-88
2022/03/11 03:34:32;;;;;;;15.27;8.45;;;2.10;99.90;;;;;;6158855;23;20108;-88
2022/03/11 03:36:59;;;;;;;13.15;8.50;;;2.00;99.90;;;;;;6184511;23;20029;-88
2022/03/11 03:39:26;;;;;;;16.35;8.50;;;2.40;99.90;;;;;;6159307;23;20461;-88
2022/03/11 03:41:52;;;;;;;17.88;9.52;;;2.00;99.90;;;;;;6159102;23;20464;-88
2022/03/11 03:44:18;;;;;;;16.33;8.85;;;2.00;99.90;;;;;;6159052;23;20059;-87
2022/03/11 03:46:44;;;;;;;18.30;10.00;;;1.90;99.90;;;;;;6183816;23;20017;-87
2022/03/11 03:49:10;;;;;;;18.15;8.82;;;2.40;99.90;;;;;;6158208;23;20539;-88
2022/03/11 03:51:38;;;;;;;;;;;1.90;99.90;;;;;;6160057;23;20095;-88
2022/03/11 03:54:07;;;;;;;;;;;3.00;99.90;;;;;;6185129;23;19987;-87
2022/03/11 03:56:37;;;;;;;15.48;8.00;;;1.90;99.90;;;;;;6184508;23;19916;-88
2022/03/11 03:59:08;;;;;;;18.23;9.45;;;1.90;99.90;;;;;;6183564;23;20032;-87
2022/03/11 04:01:35;;;;;;;17.30;8.70;;;2.60;99.90;;;;;;6186447;23;20029;-87
2022/03/11 04:04:05;;;;;;;23.23;8.90;;;2.70;99.90;;;;;;6187664;23;20013;-88
2022/03/11 04:06:32;;;;;;;18.05;9.45;;;1.80;99.90;;;;;;6182558;23;20013;-87
2022/03/11 04:08:59;;;;;;;16.70;8.90;;;1.80;99.90;;;;;;6184404;23;20028;-88
2022/03/11 04:11:28;;;;;;;19.63;9.85;;;2.70;99.90;;;;;;6159193;23;20017;-88
2022/03/11 04:13:58;;;;;;;18.45;9.93;;;1.70;99.90;;;;;;6184100;23;20017;-88
2022/03/11 04:16:24;;;;;;;24.23;9.73;;;1.60;99.90;;;;;;6134272;23;20460;-87
2022/03/11 04:18:50;;;;;;;17.92;9.70;;;1.60;99.90;;;;;;6183168;23;20017;-87
2022/03/11 04:21:17;;;;;;;21.42;9.32;;;1.80;99.90;;;;;;6182973;23;20100;-87
2022/03/11 04:23:44;;;;;;;19.92;9.35;;;1.60;99.90;;;;;;6189915;23;20048;-85
2022/03/11 04:26:10;;;;;;;20.88;10.00;;;1.60;99.90;;;;;;6160440;23;20055;-87
2022/03/11 04:28:37;;;;;;;16.63;9.07;;;1.60;99.90;;;;;;6133724;23;20052;-88
2022/03/11 04:31:09;;;;;;;18.40;9.60;;;2.10;99.90;;;;;;6183173;23;20543;-87
2022/03/11 04:33:36;;;;;;;16.08;9.50;;;1.50;99.90;;;;;;6158112;23;20143;-88
2022/03/11 04:36:03;;;;;;;18.27;9.57;;;1.50;99.90;;;;;;6133822;23;20083;-87
2022/03/11 04:38:30;;;;;;;18.00;8.98;;;1.50;99.90;;;;;;6182992;23;20025;-87
2022/03/11 04:40:56;;;;;;;21.67;10.52;;;1.50;99.90;;;;;;6134050;23;20029;-87
2022/03/11 04:43:22;;;;;;;;;;;2.20;99.90;;;;;;6160018;23;20444;-89
2022/03/11 04:45:48;;;;;;;14.50;8.27;;;1.40;99.90;;;;;;6185510;23;19951;-88
2022/03/11 04:48:14;;;;;;;19.20;9.75;;;1.40;99.90;;;;;;6186920;23;20071;-89
2022/03/11 04:50:40;;;;;;;16.65;9.88;;;1.40;99.90;;;;;;6186293;23;20017;-89
2022/03/11 04:53:06;;;;;;;14.93;9.10;;;1.40;99.90;;;;;;6188599;23;20016;-88
2022/03/11 04:55:32;;;;;;;18.58;10.40;;;2.50;99.90;;;;;;6160436;23;20021;-91
2022/03/11 04:57:57;;;;;;;17.98;9.48;;;1.30;99.90;;;;;;6184136;23;20040;-89
2022/03/11 05:00:23;;;;;;;16.52;9.55;;;1.40;99.90;;;;;;6183599;23;20025;-89
2022/03/11 05:02:50;;;;;;;19.30;9.98;;;1.20;99.90;;;;;;6158660;23;20013;-88
2022/03/11 05:05:16;;;;;;;23.55;10.65;;;1.20;99.90;;;;;;6182701;23;20017;-88
2022/03/11 05:07:42;;;;;;;13.30;9.00;;;2.10;99.90;;;;;;6183055;23;20019;-88
2022/03/11 05:10:08;;;;;;;;;;;2.60;99.90;;;;;;6183634;23;20021;-88
2022/03/11 05:12:37;;;;;;;17.67;8.95;;;1.10;99.90;;;;;;6158163;23;19916;-88
2022/03/11 05:15:05;;;;;;;17.88;9.40;;;1.90;99.90;;;;;;6158063;23;20418;-88
2022/03/11 05:17:31;;;;;;;22.17;10.13;;;1.10;99.90;;;;;;6182685;23;20020;-88
2022/03/11 05:19:57;;;;;;;17.35;9.63;;;1.10;99.90;;;;;;6186139;23;20017;-89
2022/03/11 05:22:23;;;;;;;16.13;9.15;;;2.40;99.90;;;;;;6168408;23;20060;-86
2022/03/11 05:24:49;;;;;;;;;;;2.50;99.90;;;;;;6147592;23;20035;-90
2022/03/11 05:27:15;;;;;;;17.88;10.05;;;1.00;99.90;;;;;;6159342;23;20324;-89
2022/03/11 05:29:41;;;;;;;;;;;1.00;99.90;;;;;;6185284;23;20019;-89
2022/03/11 05:32:08;;;;;;;17.27;9.00;;;1.20;99.90;;;;;;6184531;23;19983;-88
2022/03/11 05:34:38;;;;;;;13.80;8.07;;;1.00;99.90;;;;;;6158893;23;20024;-88
2022/03/11 05:37:05;;;;;;;13.20;8.77;;;1.40;99.90;;;;;;6161891;23;20015;-89
2022/03/11 05:39:31;;;;;;;17.00;10.57;;;1.00;99.90;;;;;;6139245;23;20100;-89
2022/03/11 05:41:57;;;;;;;15.70;9.85;;;0.90;99.90;;;;;;6162584;23;20017;-89
2022/03/11 05:44:23;;;;;;;16.63;10.55;;;0.90;99.90;;;;;;6135505;23;20100;-88
2022/03/11 05:46:49;;;;;;;;;;;0.90;99.90;;;;;;6162774;23;20101;-90
2022/03/11 05:49:15;;;;;;;18.63;9.10;;;0.90;99.90;;;;;;6158871;23;19936;-89
2022/03/11 05:51:41;;;;;;;;;;;0.90;99.90;;;;;;6134586;23;20099;-91
2022/03/11 05:54:06;;;;;;;19.23;9.95;;;2.30;99.90;;;;;;6183730;23;19912;-91
2022/03/11 05:56:34;;;;;;;15.02;9.85;;;2.20;99.90;;;;;;6121901;23;20024;-89
2022/03/11 05:59:00;;;;;;;13.90;9.35;;;0.80;99.90;;;;;;6168886;23;20356;-90
2022/03/11 06:01:26;;;;;;;18.13;9.43;;;0.80;99.90;;;;;;6134418;23;20021;-89
2022/03/11 06:03:52;;;;;;;18.67;10.23;;;0.80;99.90;;;;;;6136310;23;20463;-91
2022/03/11 06:06:18;;;;;;;16.15;8.45;;;0.80;99.90;;;;;;6188443;23;20452;-89
2022/03/11 06:08:44;;;;;;;;;;;1.90;99.90;;;;;;6187136;23;20017;-90
2022/03/11 06:11:10;;;;;;;14.32;9.60;;;0.80;99.90;;;;;;6164120;23;19983;-90
2022/03/11 06:13:36;;;;;;;16.05;9.32;;;0.90;99.90;;;;;;6136372;23;20029;-88
2022/03/11 06:16:03;;;;;;;15.57;10.32;;;1.00;99.90;;;;;;6185239;23;20024;-87
2022/03/11 06:18:29;;;;;;;18.00;9.27;;;1.00;99.90;;;;;;6183541;23;20408;-88
2022/03/11 06:20:56;;;;;;;17.02;9.73;;;1.00;99.90;;;;;;6159828;23;20021;-88
2022/03/11 06:23:23;;;;;;;16.38;8.60;;;1.10;99.90;;;;;;6164289;23;20017;-87
2022/03/11 06:25:50;;;;;;;16.13;10.07;;;1.90;99.90;;;;;;6183087;23;20005;-88
2022/03/11 06:28:16;;;;;;;;;;;1.10;99.90;;;;;;6140554;23;20020;-89
2022/03/11 06:30:44;;;;;;;15.23;8.70;;;1.30;99.90;;;;;;6162757;23;19994;-88
2022/03/11 06:33:11;;;;;;;13.00;8.55;;;1.10;99.90;;;;;;6162742;23;20310;-90
2022/03/11 06:35:38;;;;;;;16.52;8.73;;;1.60;99.90;;;;;;6115918;23;20155;-91
2022/03/11 06:38:04;;;;;;;17.27;9.75;;;1.20;99.90;;;;;;6163377;23;20404;-90
2022/03/11 06:40:30;;;;;;;16.23;9.77;;;1.40;99.90;;;;;;6161291;23;20151;-90
2022/03/11 06:42:56;;;;;;;17.13;10.15;;;2.00;99.90;;;;;;6185578;23;20017;-90
2022/03/11 06:45:22;;;;;;;;;;;1.30;99.90;;;;;;6161254;23;20017;-92
2022/03/11 06:47:48;;;;;;;21.00;8.95;;;1.30;99.90;;;;;;6193555;23;19938;-88
2022/03/11 06:50:15;;;;;;;;;;;1.70;99.90;;;;;;6168279;23;20024;-92
2022/03/11 06:52:41;;;;;;;16.00;9.15;;;1.50;99.90;;;;;;6185795;23;19916;-90
2022/03/11 06:55:07;;;;;;;18.77;9.52;;;1.60;99.90;;;;;;6190588;23;20095;-89
2022/03/11 06:57:34;;;;;;;19.42;8.65;;;1.70;99.90;;;;;;6204216;23;20072;-89
2022/03/11 07:00:01;;;;;;;20.63;9.30;;;1.80;99.90;;;;;;6203478;23;20021;-89
2022/03/11 07:02:27;;;;;;;17.73;8.45;;;1.90;99.90;;;;;;6135577;23;20013;-91
2022/03/11 07:04:52;;;;;;;18.90;8.90;;;1.90;99.90;;;;;;6186431;23;20095;-94
2022/03/11 07:07:18;;;;;;;17.63;9.15;;;2.00;99.90;;;;;;6137243;23;20060;-90
2022/03/11 07:09:44;;;;;;;19.92;9.93;;;2.10;99.90;;;;;;6185999;23;20013;-90
2022/03/11 07:12:10;;;;;;;23.02;9.75;;;2.10;99.90;;;;;;6160580;23;20096;-90
2022/03/11 07:14:36;;;;;;;18.95;9.50;;;2.40;99.90;;;;;;6183955;23;20488;-88
2022/03/11 07:17:03;;;;;;;15.50;8.52;;;2.30;99.90;;;;;;6135801;23;20016;-92
2022/03/11 07:19:29;;;;;;;15.18;10.00;;;2.40;99.90;;;;;;6185699;23;20028;-88
2022/03/11 07:21:56;;;;;;;14.13;8.82;;;2.50;99.90;;;;;;6189134;23;20020;-90
2022/03/11 07:24:22;;;;;;;18.08;9.50;;;2.50;99.90;;;;;;6191652;23;20025;-89
2022/03/11 07:26:47;;;;;;;11.05;7.55;;;2.60;99.90;;;;;;6186074;23;20032;-88
2022/03/11 07:29:13;;;;;;;19.60;9.00;;;2.60;99.90;;;;;;6117363;23;20017;-90
2022/03/11 07:31:39;;;;;;;17.92;8.65;;;2.70;99.90;;;;;;6145294;23;20329;-89
2022/03/11 07:34:05;;;;;;;15.23;8.80;;;2.80;99.90;;;;;;6193349;23;20024;-90
2022/03/11 07:36:34;;;;;;;19.25;9.85;;;3.20;99.90;;;;;;6144494;23;20162;-90
2022/03/11 07:39:02;;;;;;;13.77;8.27;;;3.00;99.90;;;;;;6143160;23;20340;-90
2022/03/11 07:41:28;;;;;;;16.30;9.63;;;3.70;99.90;;;;;;6138218;23;20043;-90
2022/03/11 07:43:54;;;;;;;24.13;9.80;;;3.10;99.90;;;;;;6161181;23;20348;-91
2022/03/11 07:46:23;;;;;;;20.25;9.52;;;3.20;99.90;;;;;;6186340;23;20013;-92
2022/03/11 07:48:49;;;;;;;18.08;9.25;;;3.70;99.90;;;;;;6140430;23;20021;-89
2022/03/11 07:51:16;;;;;;;18.83;10.00;;;3.40;99.90;;;;;;6141502;23;20318;-90
2022/03/11 07:53:42;;;;;;;16.60;9.20;;;3.40;99.90;;;;;;6144012;23;20040;-88
2022/03/11 07:56:10;;;;;;;16.38;10.52;;;3.40;99.90;;;;;;6176394;23;20025;-88
2022/03/11 07:58:36;;;;;;;13.95;9.05;;;3.50;99.90;;;;;;6197671;23;20052;-90
2022/03/11 08:01:04;;;;;;;11.70;8.07;;;3.80;99.90;;;;;;6162161;23;20445;-88
2022/03/11 08:03:30;;;;;;;17.60;9.20;;;3.90;99.90;;;;;;6137586;23;20441;-88
2022/03/11 08:05:56;;;;;;;16.75;8.55;;;3.80;99.90;;;;;;6184221;23;20024;-88
2022/03/11 08:08:21;;;;;;;19.05;9.13;;;3.90;99.90;;;;;;6186449;23;20039;-90
2022/03/11 08:10:48;;;;;;;14.57;8.93;;;3.90;99.90;;;;;;6185201;23;20110;-90
2022/03/11 08:13:14;;;;;;;13.10;7.35;;;4.00;99.90;;;;;;6159977;23;20417;-87
2022/03/11 08:15:40;;;;;;;16.65;9.20;;;4.10;99.90;;;;;;6185308;23;20028;-88
2022/03/11 08:18:06;;;;;;;14.38;8.20;;;4.90;99.90;;;;;;6184745;23;20053;-89
2022/03/11 08:20:32;;;;;;;16.17;9.77;;;4.30;99.90;;;;;;6184023;23;20044;-90
2022/03/11 08:22:57;;;;;;;15.02;8.20;;;4.40;99.90;;;;;;6184408;23;20616;-89
2022/03/11 08:25:26;;;;;;;14.02;8.95;;;4.50;99.90;;;;;;6160428;23;20017;-87
2022/03/11 08:27:56;;;;;;;18.45;9.23;;;4.60;99.90;;;;;;6185363;23;20009;-90
2022/03/11 08:30:23;;;;;;;16.35;8.45;;;4.60;99.90;;;;;;6139249;23;20028;-90
2022/03/11 08:32:49;;;;;;;17.67;10.25;;;4.70;99.90;;;;;;6184572;23;20067;-90
2022/03/11 08:35:15;;;;;;;14.65;8.57;;;4.80;99.90;;;;;;6159926;23;20013;-90
2022/03/11 08:37:41;;;;;;;;;;;4.90;99.90;;;;;;6187241;23;20024;-90
2022/03/11 08:40:09;;;;;;;13.20;8.20;;;5.00;99.90;;;;;;6195415;23;19912;-88
2022/03/11 08:42:35;;;;;;;18.50;9.95;;;5.00;99.90;;;;;;6193585;23;20017;-89
2022/03/11 08:45:01;;;;;;;18.67;9.55;;;5.30;99.90;;;;;;6194286;23;20031;-90
2022/03/11 08:47:27;;;;;;;;;;;5.20;99.90;;;;;;6181238;23;20025;-88
2022/03/11 08:49:54;;;;;;;14.90;8.95;;;5.30;99.90;;;;;;6177459;23;19961;-88
2022/03/11 08:52:19;;;;;;;14.27;8.77;;;5.40;99.90;;;;;;6202599;23;20065;-88
2022/03/11 08:54:46;;;;;;;20.08;9.82;;;5.50;99.90;;;;;;6189860;23;20083;-88
2022/03/11 08:57:12;;;;;;;15.50;8.85;;;5.50;99.90;;;;;;6186607;23;20465;-90
2022/03/11 08:59:38;;;;;;;;;;;5.60;99.90;;;;;;6161802;23;20032;-90
2022/03/11 09:02:07;;;;;;;13.82;8.52;;;5.60;99.90;;;;;;6160485;23;19963;-91
2022/03/11 09:04:36;;;;;;;20.52;9.68;;;5.70;99.90;;;;;;6190905;23;20021;-87
2022/03/11 09:07:02;;;;;;;18.30;9.63;;;5.80;99.90;;;;;;6190763;23;20016;-88
2022/03/11 09:09:29;;;;;;;13.70;8.82;;;5.80;99.90;;;;;;6189181;23;20025;-89
2022/03/11 09:11:55;;;;;;;18.83;9.00;;;5.90;99.90;;;;;;6159955;23;20104;-89
2022/03/11 09:14:21;;;;;;;18.00;8.95;;;6.10;99.90;;;;;;6183984;23;20020;-90
2022/03/11 09:16:46;;;;;;;16.45;8.82;;;6.10;99.90;;;;;;6183472;23;20075;-89
2022/03/11 09:19:13;;;;;;;19.13;9.98;;;6.10;99.90;;;;;;6137513;23;20056;-89
2022/03/11 09:21:39;;;;;;;16.38;8.70;;;6.40;99.90;;;;;;6138584;23;20100;-89
2022/03/11 09:24:05;;;;;;;;;;;6.20;99.90;;;;;;6144179;23;20025;-87
2022/03/11 09:26:32;;;;;;;18.58;8.43;;;6.20;99.90;;;;;;6173281;23;19912;-91
2022/03/11 09:28:58;;;;;;;17.95;8.82;;;6.20;99.90;;;;;;6198010;23;20424;-88
2022/03/11 09:31:24;;;;;;;20.50;10.43;;;6.30;99.90;;;;;;6184351;23;20100;-91
2022/03/11 09:33:50;;;;;;;13.30;8.65;;;6.40;99.90;;;;;;6183801;23;20437;-90
2022/03/11 09:36:16;;;;;;;17.77;10.48;;;6.50;99.90;;;;;;6136345;23;20462;-89
2022/03/11 09:38:42;;;;;;;12.48;8.63;;;6.50;99.90;;;;;;6184535;23;20051;-88
2022/03/11 09:41:08;;;;;;;17.27;8.90;;;6.50;99.90;;;;;;6158771;23;20032;-89
2022/03/11 09:43:36;;;;;;;15.27;9.32;;;6.50;99.90;;;;;;6183296;23;20017;-89
2022/03/11 09:46:03;;;;;;;16.38;9.48;;;6.60;99.90;;;;;;6133988;23;20329;-88
2022/03/11 09:48:30;;;;;;;15.07;9.63;;;6.70;99.90;;;;;;6158304;23;20017;-90
2022/03/11 09:50:58;;;;;;;15.07;9.10;;;6.70;99.90;;;;;;6183354;23;20060;-90
2022/03/11 09:53:24;;;;;;;15.27;9.98;;;6.80;99.90;;;;;;6183839;23;20055;-88
2022/03/11 09:55:56;;;;;;;19.50;9.38;;;6.90;99.90;;;;;;6190267;23;20021;-88
2022/03/11 09:58:21;;;;;;;17.25;8.95;;;6.90;99.90;;;;;;6167797;23;20322;-88
2022/03/11 10:00:48;;;;;;;17.52;9.73;;;7.00;99.90;;;;;;6186839;23;20017;-89
2022/03/11 10:03:15;;;;;;;13.85;8.63;;;7.10;99.90;;;;;;6156691;23;20048;-88
2022/03/11 10:05:52;;;;;;;17.67;9.95;;;7.10;99.90;;;;;;6155864;23;20021;-88
2022/03/11 10:08:38;;;;;;;17.77;8.85;;;7.20;99.90;;;;;;6179421;23;20061;-82
2022/03/11 10:11:27;;;;;;;20.30;9.10;;;7.30;99.90;;;;;;6145109;23;20036;-82
2022/03/11 10:13:54;;;;;;;17.77;9.45;;;7.30;99.80;;;;;;6171194;23;20025;-82
2022/03/11 10:16:23;;;;;;;15.48;8.85;;;7.50;99.90;;;;;;6173520;23;20388;-82
2022/03/11 10:19:00;;;;;;;19.13;10.10;;;7.60;99.90;;;;;;6150484;23;20029;-83
2022/03/11 10:21:34;;;;;;;16.15;9.13;;;7.70;98.90;;;;;;6143812;23;20017;-82
2022/03/11 10:24:02;;;;;;;15.98;8.80;;;7.70;97.90;;;;;;6174001;23;20082;-82
2022/03/11 10:26:41;;;;;;;18.38;8.70;;;7.70;98.40;;;;;;6182273;23;20408;-82
2022/03/11 10:29:15;;;;;;;16.40;8.65;;;7.70;98.10;;;;;;6155625;23;20399;-82
2022/03/11 10:31:43;;;;;;;15.13;9.48;;;7.80;97.30;;;;;;6180407;23;20099;-82
2022/03/11 10:34:23;;;;;;;20.33;9.73;;;7.80;96.60;;;;;;6154244;23;20021;-80
2022/03/11 10:37:08;;;;;;;18.65;10.27;;;7.80;96.60;;;;;;6154906;23;20201;-81
2022/03/11 10:39:42;;;;;;;17.98;9.68;;;7.90;96.90;;;;;;6156380;23;20017;-82
2022/03/11 10:42:23;;;;;;;20.35;10.10;;;8.00;96.60;;;;;;6155733;23;20543;-81
2022/03/11 10:45:06;;;;;;;24.75;10.60;;;8.20;94.90;;;;;;6179893;23;20017;-81
2022/03/11 10:47:34;;;;;;;16.35;9.43;;;8.20;95.20;;;;;;6155504;23;20017;-81
2022/03/11 10:50:12;;;;;;;16.73;9.13;;;8.30;93.90;;;;;;6160855;23;20052;-80
2022/03/11 10:52:48;;;;;;;18.05;10.55;;;8.30;95.10;;;;;;6159302;23;20108;-81
2022/03/11 10:55:26;;;;;;;16.13;8.90;;;8.30;94.70;;;;;;6157733;23;20032;-81
2022/03/11 10:58:00;;;;;;;19.55;9.30;;;8.30;93.90;;;;;;6181837;23;20409;-80
2022/03/11 11:00:31;;;;;;;14.18;9.43;;;8.40;94.00;;;;;;6157155;23;20028;-81
2022/03/11 11:02:59;;;;;;;17.50;9.52;;;8.40;93.20;;;;;;6155532;23;20027;-81
2022/03/11 11:05:29;;;;;;;16.13;9.25;;;8.40;93.50;;;;;;6155629;23;20094;-82
2022/03/11 11:07:57;;;;;;;15.70;9.48;;;8.50;93.40;;;;;;6108804;23;20013;-80
2022/03/11 11:10:24;;;;;;;14.77;9.93;;;8.50;92.90;;;;;;6182089;23;20047;-80
2022/03/11 11:12:52;;;;;;;16.95;9.18;;;8.50;91.90;;;;;;6156519;23;20019;-80
2022/03/11 11:15:18;;;;;;;17.08;9.13;;;8.60;91.90;;;;;;6158453;23;20044;-80
2022/03/11 11:17:52;;;;;;;20.27;10.00;;;8.60;91.70;;;;;;6158461;23;20013;-81
2022/03/11 11:20:38;;;;;;;15.82;11.60;;;8.60;90.20;;;;;;6155784;23;20024;-81
2022/03/11 11:23:05;;;;;;;14.60;8.95;;;8.70;90.40;;;;;;6156734;23;20064;-79
2022/03/11 11:25:33;;;;;;;14.15;9.48;;;8.90;89.00;;;;;;6181241;23;20020;-80
2022/03/11 11:28:16;;;;;;;17.88;8.98;;;8.90;89.90;;;;;;6182170;23;20096;-81
2022/03/11 11:30:44;;;;;;;17.15;9.60;;;9.00;87.70;;;;;;6157152;23;20017;-80
2022/03/11 11:33:10;;;;;;;14.75;9.35;;;9.10;90.00;;;;;;6180487;23;20031;-80
2022/03/11 11:35:39;;;;;;;;;;;9.20;89.40;;;;;;6182949;23;20025;-81
2022/03/11 11:38:33;;;;;;;18.02;9.43;;;9.30;86.80;;;;;;6182379;23;19963;-80
2022/03/11 11:41:00;;;;;;;14.63;8.15;;;9.30;88.00;;;;;;6181801;23;20108;-80
2022/03/11 11:46:01;;;;;;;15.32;9.25;;;9.50;87.90;;;;;;6181772;23;20021;-80
2022/03/11 11:48:33;;;;;;;15.55;8.45;;;9.70;85.20;;;;;;6156007;23;20126;-80
2022/03/11 11:51:10;;;;;;;13.13;8.05;;;9.70;86.60;;;;;;6156603;23;20021;-80
2022/03/11 11:53:56;;;;;;;14.02;7.78;;;9.80;82.50;;;;;;6182051;23;20032;-81
2022/03/11 11:56:36;;;;;;;15.95;8.00;;;9.80;85.90;;;;;;6181810;23;20075;-80
2022/03/11 11:59:19;;;;;;;13.35;9.85;;;9.90;83.70;;;;;;6156691;23;20021;-81
2022/03/11 12:01:55;;;;;;;20.38;9.25;;;10.00;84.90;;;;;;6181334;23;20056;-81
2022/03/11 12:04:28;;;;;;;16.80;9.05;;;10.00;79.70;;;;;;6180595;23;20020;-81
2022/03/11 12:06:58;;;;;;;14.88;8.27;;;10.00;81.90;;;;;;6181504;23;20028;-80
2022/03/11 12:12:44;;;;;;;14.82;8.35;;;10.20;80.30;;;;;;6169637;23;20098;-79
2022/03/11 12:15:11;;;;;;;16.70;9.20;;;10.30;82.20;;;;;;6182284;23;20020;-80
2022/03/11 12:17:47;;;;;;;19.05;9.43;;;10.40;83.00;;;;;;6156990;23;20017;-80
2022/03/11 12:20:29;;;;;;;14.30;8.70;;;10.50;81.00;;;;;;6180328;23;20021;-79
2022/03/11 12:23:07;;;;;;;16.65;7.95;;;10.40;80.00;;;;;;6156292;23;20036;-80
2022/03/11 12:25:44;;;;;;;14.73;8.02;;;10.50;78.90;;;;;;6181981;23;20048;-79
2022/03/11 12:28:25;;;;;;;;;;;10.50;79.10;;;;;;6157481;23;20452;-80
2022/03/11 12:31:14;;;;;;;11.60;7.47;;;10.50;77.00;;;;;;6156698;23;19913;-81
2022/03/11 12:33:45;;;;;;;16.73;8.15;;;10.70;77.40;;;;;;6181168;23;20020;-80
2022/03/11 12:36:18;;;;;;;15.68;8.63;;;10.80;76.70;;;;;;6157596;23;20023;-80
2022/03/11 12:38:45;;;;;;;14.05;8.05;;;10.90;73.90;;;;;;6157726;23;20017;-80
2022/03/11 12:41:22;;;;;;;19.08;8.98;;;11.00;76.90;;;;;;6132556;23;20452;-79
2022/03/11 12:43:48;;;;;;;13.82;8.07;;;11.10;74.00;;;;;;6157428;23;20021;-79
2022/03/11 12:46:14;;;;;;;15.00;8.27;;;11.10;77.30;;;;;;6156953;23;20016;-81
2022/03/11 12:48:42;;;;;;;19.90;9.07;;;11.20;76.70;;;;;;6156189;23;20087;-80
2022/03/11 12:51:21;;;;;;;12.00;7.32;;;11.20;76.10;;;;;;6157382;23;20044;-79
2022/03/11 12:53:49;;;;;;;20.10;8.70;;;11.30;72.20;;;;;;6181503;23;20048;-81
2022/03/11 12:56:16;;;;;;;13.52;7.93;;;11.40;75.90;;;;;;6179558;23;20465;-79
2022/03/11 12:58:42;;;;;;;13.15;8.23;;;11.50;75.60;;;;;;6166606;23;20029;-79
2022/03/11 13:01:10;;;;;;;13.30;7.85;;;11.60;75.20;;;;;;6188737;23;20419;-79
2022/03/11 13:03:47;;;;;;;14.70;9.35;;;11.70;75.40;;;;;;6156521;23;20333;-80